createdAt,value
2017-12-01T00:01:08.821Z,6.40
2017-12-01T00:03:36.660Z,6.00
2017-12-01T00:06:03.679Z,6.00
2017-12-01T00:08:35.954Z,6.50
2017-12-01T00:11:04.568Z,6.70
2017-12-01T00:13:31.930Z,6.60
2017-12-01T00:15:59.039Z,6.20
2017-12-01T00:18:26.107Z,5.90
2017-12-01T00:20:53.957Z,5.80
2017-12-01T00:23:21.511Z,5.80
2017-12-01T00:25:48.915Z,6.00
2017-12-01T00:28:16.065Z,6.00
2017-12-01T00:30:43.124Z,5.70
2017-12-01T00:33:10.328Z,5.50
2017-12-01T00:35:38.299Z,6.10
2017-12-01T00:38:05.590Z,6.10
2017-12-01T00:40:32.674Z,6.90
2017-12-01T00:43:00.506Z,7.10
2017-12-01T00:45:27.600Z,7.00
2017-12-01T00:47:55.223Z,6.20
2017-12-01T00:50:22.288Z,5.60
2017-12-01T00:52:49.303Z,5.40
2017-12-01T00:55:16.324Z,5.30
2017-12-01T00:57:43.355Z,5.30
2017-12-01T01:00:10.439Z,5.20
2017-12-01T01:02:38.233Z,5.40
2017-12-01T01:05:05.263Z,5.30
2017-12-01T01:07:32.287Z,5.20
2017-12-01T01:09:59.315Z,5.10
2017-12-01T01:12:26.343Z,5.00
2017-12-01T01:14:53.361Z,4.90
2017-12-01T01:17:20.380Z,5.00
2017-12-01T01:19:48.267Z,5.00
2017-12-01T01:22:16.051Z,5.10
2017-12-01T01:24:43.071Z,5.00
2017-12-01T01:27:10.858Z,5.10
2017-12-01T01:29:37.876Z,5.00
2017-12-01T01:32:05.659Z,4.90
2017-12-01T01:34:33.443Z,4.90
2017-12-01T01:37:00.468Z,4.80
2017-12-01T01:39:28.259Z,5.80
2017-12-01T01:41:55.284Z,5.70
2017-12-01T01:44:23.147Z,5.20
2017-12-01T01:46:50.945Z,5.10
2017-12-01T01:49:17.975Z,5.00
2017-12-01T01:51:44.995Z,5.00
2017-12-01T01:54:12.783Z,5.40
2017-12-01T01:56:40.567Z,5.10
2017-12-01T01:59:07.584Z,5.10
2017-12-01T02:01:35.381Z,5.40
2017-12-01T02:04:02.402Z,5.40
2017-12-01T02:06:30.193Z,6.80
2017-12-01T02:08:57.216Z,6.70
2017-12-01T02:11:25.006Z,5.60
2017-12-01T02:13:52.032Z,5.50
2017-12-01T02:16:19.823Z,4.80
2017-12-01T02:18:46.840Z,4.80
2017-12-01T02:21:14.720Z,4.80
2017-12-01T02:23:42.503Z,4.90
2017-12-01T02:26:09.568Z,4.90
2017-12-01T02:28:36.573Z,5.00
2017-12-01T02:31:04.387Z,4.80
2017-12-01T02:33:31.403Z,4.80
2017-12-01T02:35:58.445Z,4.70
2017-12-01T02:38:26.228Z,4.60
2017-12-01T02:40:53.249Z,4.60
2017-12-01T02:43:21.039Z,4.30
2017-12-01T02:45:48.064Z,4.20
2017-12-01T02:48:15.853Z,4.30
2017-12-01T02:50:42.874Z,4.30
2017-12-01T02:53:10.670Z,4.10
2017-12-01T02:55:37.691Z,4.10
2017-12-01T02:58:05.471Z,4.10
2017-12-01T03:00:32.497Z,4.00
2017-12-01T03:02:59.524Z,4.10
2017-12-01T03:05:26.559Z,4.10
2017-12-01T03:07:53.587Z,4.20
2017-12-01T03:10:20.611Z,4.30
2017-12-01T03:12:48.406Z,4.20
2017-12-01T03:15:15.524Z,4.20
2017-12-01T03:17:43.310Z,4.30
2017-12-01T03:20:10.331Z,4.30
2017-12-01T03:22:38.203Z,4.20
2017-12-01T03:25:06.022Z,4.70
2017-12-01T03:27:33.040Z,4.60
2017-12-01T03:30:00.068Z,4.50
2017-12-01T03:32:27.851Z,4.30
2017-12-01T03:34:54.872Z,4.20
2017-12-01T03:37:22.660Z,4.30
2017-12-01T03:39:49.684Z,4.30
2017-12-01T03:42:17.475Z,4.30
2017-12-01T03:44:44.493Z,4.30
2017-12-01T03:47:12.284Z,4.30
2017-12-01T03:49:39.302Z,4.30
2017-12-01T03:52:06.327Z,4.40
2017-12-01T03:54:33.343Z,4.40
2017-12-01T03:57:00.365Z,4.40
2017-12-01T03:59:28.160Z,4.40
2017-12-01T04:01:55.179Z,4.30
2017-12-01T04:04:22.976Z,4.50
2017-12-01T04:06:50.008Z,4.50
2017-12-01T04:09:17.039Z,4.50
2017-12-01T04:11:44.826Z,4.50
2017-12-01T04:14:11.850Z,4.50
2017-12-01T04:16:39.644Z,4.40
2017-12-01T04:19:06.660Z,4.40
2017-12-01T04:21:34.447Z,4.70
2017-12-01T04:24:01.473Z,4.60
2017-12-01T04:26:29.268Z,4.70
2017-12-01T04:28:56.287Z,4.60
2017-12-01T04:31:24.083Z,4.40
2017-12-01T04:33:51.103Z,4.40
2017-12-01T04:36:18.886Z,4.20
2017-12-01T04:38:45.912Z,4.10
2017-12-01T04:41:12.933Z,4.20
2017-12-01T04:43:39.946Z,4.40
2017-12-01T04:46:06.979Z,4.30
2017-12-01T04:48:34.000Z,4.40
2017-12-01T04:51:01.031Z,4.30
2017-12-01T04:53:28.059Z,4.20
2017-12-01T04:55:55.086Z,4.20
2017-12-01T04:58:22.108Z,4.20
2017-12-01T05:00:49.899Z,4.10
2017-12-01T05:03:16.915Z,4.00
2017-12-01T05:05:44.700Z,4.40
2017-12-01T05:08:11.723Z,4.40
2017-12-01T05:10:39.511Z,4.20
2017-12-01T05:13:06.536Z,4.10
2017-12-01T05:15:33.563Z,4.10
2017-12-01T05:18:00.597Z,4.10
2017-12-01T05:20:27.623Z,4.10
2017-12-01T05:22:54.651Z,4.10
2017-12-01T05:25:21.672Z,4.10
2017-12-01T05:27:48.695Z,4.00
2017-12-01T05:30:15.715Z,4.10
2017-12-01T05:32:42.740Z,4.10
2017-12-01T05:35:10.609Z,4.20
2017-12-01T05:37:38.392Z,4.30
2017-12-01T05:40:05.415Z,4.20
2017-12-01T05:42:33.213Z,4.30
2017-12-01T05:45:00.232Z,4.20
2017-12-01T05:47:28.021Z,4.20
2017-12-01T05:49:55.039Z,4.10
2017-12-01T05:52:22.832Z,4.10
2017-12-01T05:54:49.852Z,4.10
2017-12-01T05:57:17.642Z,4.40
2017-12-01T05:59:44.660Z,4.30
2017-12-01T06:02:12.447Z,4.10
2017-12-01T06:04:39.475Z,4.10
2017-12-01T06:07:07.268Z,4.20
2017-12-01T06:09:34.284Z,4.10
2017-12-01T06:12:01.322Z,4.00
2017-12-01T06:14:28.347Z,4.10
2017-12-01T06:16:55.373Z,4.00
2017-12-01T06:19:22.403Z,4.00
2017-12-01T06:21:49.428Z,3.90
2017-12-01T06:24:16.456Z,3.90
2017-12-01T06:26:43.471Z,4.00
2017-12-01T06:29:10.495Z,3.70
2017-12-01T06:31:37.511Z,3.50
2017-12-01T06:34:04.544Z,3.60
2017-12-01T06:36:31.570Z,3.60
2017-12-01T06:38:58.596Z,3.50
2017-12-01T06:41:25.616Z,3.60
2017-12-01T06:43:53.408Z,3.50
2017-12-01T06:46:20.424Z,3.50
2017-12-01T06:48:47.448Z,3.50
2017-12-01T06:51:14.468Z,3.50
2017-12-01T06:53:41.487Z,3.60
2017-12-01T06:56:08.511Z,3.80
2017-12-01T06:58:35.534Z,4.00
2017-12-01T07:01:02.548Z,4.20
2017-12-01T07:03:29.570Z,4.00
2017-12-01T07:05:57.463Z,4.00
2017-12-01T07:08:24.490Z,4.00
2017-12-01T07:10:52.280Z,4.00
2017-12-01T07:13:19.336Z,3.90
2017-12-01T07:15:46.359Z,4.00
2017-12-01T07:18:13.382Z,3.90
2017-12-01T07:20:40.451Z,4.00
2017-12-01T07:23:08.340Z,4.20
2017-12-01T07:25:35.360Z,4.20
2017-12-01T07:28:03.170Z,4.20
2017-12-01T07:30:30.196Z,4.10
2017-12-01T07:32:57.215Z,4.10
2017-12-01T07:35:25.004Z,4.20
2017-12-01T07:37:52.028Z,4.20
2017-12-01T07:40:19.052Z,4.20
2017-12-01T07:42:46.161Z,4.20
2017-12-01T07:45:17.835Z,4.20
2017-12-01T07:47:44.862Z,4.30
2017-12-01T07:50:11.879Z,4.40
2017-12-01T07:52:39.671Z,4.40
2017-12-01T07:55:06.692Z,4.40
2017-12-01T07:57:33.725Z,4.50
2017-12-01T08:00:00.744Z,4.50
2017-12-01T08:02:27.767Z,4.40
2017-12-01T08:04:54.799Z,4.40
2017-12-01T08:07:22.587Z,4.60
2017-12-01T08:09:49.635Z,4.50
2017-12-01T08:12:16.655Z,4.60
2017-12-01T08:14:44.444Z,4.70
2017-12-01T08:17:17.437Z,4.60
2017-12-01T08:19:44.456Z,4.60
2017-12-01T08:22:18.044Z,4.70
2017-12-01T08:24:50.934Z,4.60
2017-12-01T08:27:17.969Z,4.70
2017-12-01T08:29:44.996Z,4.70
2017-12-01T08:32:12.166Z,4.70
2017-12-01T08:34:39.187Z,4.80
2017-12-01T08:37:06.224Z,4.80
2017-12-01T08:39:33.255Z,4.70
2017-12-01T08:42:00.287Z,4.80
2017-12-01T08:44:28.080Z,4.90
2017-12-01T08:46:55.119Z,4.80
2017-12-01T08:49:22.147Z,4.90
2017-12-01T08:51:49.929Z,4.80
2017-12-01T08:54:16.947Z,4.80
2017-12-01T08:56:43.967Z,4.70
2017-12-01T08:59:10.992Z,4.70
2017-12-01T09:01:38.007Z,4.70
2017-12-01T09:04:05.793Z,4.90
2017-12-01T09:06:32.812Z,4.90
2017-12-01T09:09:00.603Z,5.00
2017-12-01T09:11:27.624Z,4.90
2017-12-01T09:13:54.643Z,4.90
2017-12-01T09:16:21.675Z,4.90
2017-12-01T09:18:48.696Z,5.00
2017-12-01T09:21:15.715Z,4.90
2017-12-01T09:23:42.746Z,4.90
2017-12-01T09:26:09.772Z,5.00
2017-12-01T09:28:36.800Z,5.10
2017-12-01T09:31:03.821Z,5.30
2017-12-01T09:33:31.615Z,5.70
2017-12-01T09:35:58.636Z,5.60
2017-12-01T09:38:26.428Z,5.30
2017-12-01T09:40:53.447Z,5.30
2017-12-01T09:43:21.229Z,5.50
2017-12-01T09:45:48.243Z,5.40
2017-12-01T09:48:15.265Z,5.40
2017-12-01T09:50:42.290Z,5.40
2017-12-01T09:53:09.322Z,5.40
2017-12-01T09:55:36.335Z,5.40
2017-12-01T09:58:03.351Z,5.40
2017-12-01T10:00:30.373Z,5.50
2017-12-01T10:02:57.399Z,5.50
2017-12-01T10:05:25.188Z,5.50
2017-12-01T10:07:52.214Z,5.50
2017-12-01T10:10:20.005Z,5.60
2017-12-01T10:12:47.028Z,5.60
2017-12-01T10:15:14.827Z,5.80
2017-12-01T10:17:41.852Z,5.80
2017-12-01T10:20:08.883Z,5.80
2017-12-01T10:22:36.673Z,5.80
2017-12-01T10:25:03.695Z,5.70
2017-12-01T10:27:31.479Z,5.80
2017-12-01T10:29:58.499Z,5.80
2017-12-01T10:32:25.526Z,5.90
2017-12-01T10:34:52.543Z,5.90
2017-12-01T10:37:19.563Z,5.90
2017-12-01T10:39:47.353Z,6.00
2017-12-01T10:42:14.392Z,5.90
2017-12-01T10:44:41.423Z,6.00
2017-12-01T10:47:09.213Z,6.00
2017-12-01T10:49:36.231Z,6.00
2017-12-01T10:52:04.083Z,6.00
2017-12-01T10:54:31.103Z,6.00
2017-12-01T10:56:58.132Z,6.00
2017-12-01T10:59:25.164Z,6.00
2017-12-01T11:01:52.188Z,6.00
2017-12-01T11:04:19.975Z,6.10
2017-12-01T11:06:46.999Z,6.00
2017-12-01T11:09:14.799Z,6.00
2017-12-01T11:11:41.815Z,6.00
2017-12-01T11:14:09.610Z,6.10
2017-12-01T11:16:36.630Z,6.10
2017-12-01T11:19:04.427Z,6.10
2017-12-01T11:21:31.452Z,6.00
2017-12-01T11:23:59.260Z,6.20
2017-12-01T11:26:26.279Z,6.10
2017-12-01T11:28:53.304Z,6.40
2017-12-01T11:31:21.088Z,6.10
2017-12-01T11:33:48.884Z,6.10
2017-12-01T11:36:15.899Z,6.00
2017-12-01T11:38:43.683Z,6.00
2017-12-01T11:41:10.711Z,6.00
2017-12-01T11:43:38.499Z,6.20
2017-12-01T11:46:05.524Z,6.10
2017-12-01T11:48:33.315Z,6.10
2017-12-01T11:51:00.335Z,6.10
2017-12-01T11:53:28.124Z,6.00
2017-12-01T11:55:55.152Z,6.00
2017-12-01T11:58:22.939Z,6.10
2017-12-01T12:00:49.968Z,6.10
2017-12-01T12:03:17.754Z,6.10
2017-12-01T12:05:44.780Z,6.00
2017-12-01T12:08:12.566Z,6.10
2017-12-01T12:10:39.587Z,6.10
2017-12-01T12:13:07.381Z,6.00
2017-12-01T12:15:34.426Z,5.90
2017-12-01T12:18:01.447Z,6.10
2017-12-01T12:20:29.241Z,6.20
2017-12-01T12:22:56.280Z,6.10
2017-12-01T12:25:23.304Z,5.90
2017-12-01T12:27:51.111Z,5.80
2017-12-01T12:30:18.139Z,5.80
2017-12-01T12:32:45.187Z,5.90
2017-12-01T12:35:12.976Z,6.00
2017-12-01T12:37:40.045Z,5.90
2017-12-01T12:40:07.040Z,6.00
2017-12-01T12:42:34.830Z,5.90
2017-12-01T12:45:01.857Z,5.90
2017-12-01T12:47:29.639Z,5.80
2017-12-01T12:49:56.662Z,5.80
2017-12-01T12:52:24.458Z,5.80
2017-12-01T12:54:51.492Z,5.80
2017-12-01T12:57:19.273Z,5.90
2017-12-01T12:59:46.291Z,5.80
2017-12-01T13:02:14.125Z,5.80
2017-12-01T13:04:41.156Z,5.70
2017-12-01T13:07:08.186Z,5.90
2017-12-01T13:09:35.210Z,5.80
2017-12-01T13:12:02.996Z,5.70
2017-12-01T13:14:30.042Z,5.70
2017-12-01T13:16:57.084Z,5.80
2017-12-01T13:19:24.103Z,5.70
2017-12-01T13:21:51.122Z,5.70
2017-12-01T13:24:18.141Z,5.80
2017-12-01T13:26:45.167Z,5.80
2017-12-01T13:29:12.951Z,5.70
2017-12-01T13:31:39.976Z,5.70
2017-12-01T13:34:07.767Z,5.60
2017-12-01T13:36:34.787Z,5.60
2017-12-01T13:39:02.683Z,5.70
2017-12-01T13:41:29.708Z,5.60
2017-12-01T13:43:57.488Z,5.50
2017-12-01T13:46:24.503Z,5.50
2017-12-01T13:48:51.523Z,5.50
2017-12-01T13:51:18.543Z,5.50
2017-12-01T13:53:45.565Z,5.50
2017-12-01T13:56:13.404Z,5.50
2017-12-01T13:58:40.387Z,5.50
2017-12-01T14:01:08.179Z,5.50
2017-12-01T14:03:35.203Z,5.50
2017-12-01T14:06:02.223Z,5.60
2017-12-01T14:08:29.243Z,5.60
2017-12-01T14:10:56.266Z,5.90
2017-12-01T14:13:23.299Z,5.70
2017-12-01T14:15:50.328Z,5.50
2017-12-01T14:18:18.107Z,5.40
2017-12-01T14:20:45.127Z,5.40
2017-12-01T14:23:12.153Z,5.40
2017-12-01T14:25:39.187Z,5.40
2017-12-01T14:28:06.212Z,5.40
2017-12-01T14:30:33.231Z,5.40
2017-12-01T14:33:01.015Z,5.50
2017-12-01T14:35:28.039Z,5.40
2017-12-01T14:37:55.061Z,5.30
2017-12-01T14:40:22.079Z,5.40
2017-12-01T14:42:49.105Z,5.50
2017-12-01T14:45:16.895Z,5.40
2017-12-01T14:47:43.913Z,5.40
2017-12-01T14:50:11.704Z,5.40
2017-12-01T14:52:38.720Z,5.30
2017-12-01T14:55:06.504Z,5.40
2017-12-01T14:57:33.531Z,5.30
2017-12-01T15:00:01.327Z,5.20
2017-12-01T15:02:28.347Z,5.10
2017-12-01T15:04:56.128Z,5.00
2017-12-01T15:07:23.152Z,5.00
2017-12-01T15:09:50.171Z,5.00
2017-12-01T15:12:17.195Z,4.90
2017-12-01T15:14:44.230Z,4.80
2017-12-01T15:17:11.379Z,4.80
2017-12-01T15:19:38.399Z,4.60
2017-12-01T15:22:06.188Z,4.40
2017-12-01T15:24:33.207Z,4.40
2017-12-01T15:27:00.223Z,4.40
2017-12-01T15:29:27.257Z,4.30
2017-12-01T15:31:54.275Z,4.40
2017-12-01T15:34:21.294Z,4.20
2017-12-01T15:36:49.128Z,4.10
2017-12-01T15:39:16.125Z,4.00
2017-12-01T15:41:43.912Z,4.20
2017-12-01T15:44:10.928Z,4.10
2017-12-01T15:46:37.952Z,4.10
2017-12-01T15:49:04.975Z,4.00
2017-12-01T15:51:31.995Z,4.20
2017-12-01T15:53:59.776Z,4.20
2017-12-01T15:56:26.792Z,4.20
2017-12-01T15:58:54.583Z,4.10
2017-12-01T16:01:21.603Z,4.10
2017-12-01T16:03:49.390Z,4.20
2017-12-01T16:06:16.414Z,4.10
2017-12-01T16:08:44.199Z,4.20
2017-12-01T16:11:11.984Z,4.10
2017-12-01T16:13:39.002Z,4.00
2017-12-01T16:16:06.787Z,4.20
2017-12-01T16:18:33.814Z,4.20
2017-12-01T16:21:01.623Z,4.20
2017-12-01T16:23:28.653Z,4.10
2017-12-01T16:25:55.676Z,4.20
2017-12-01T16:28:23.457Z,4.20
2017-12-01T16:30:51.255Z,4.20
2017-12-01T16:33:18.275Z,4.10
2017-12-01T16:35:45.295Z,4.20
2017-12-01T16:38:12.318Z,4.20
2017-12-01T16:40:39.335Z,4.20
2017-12-01T16:43:06.362Z,4.20
2017-12-01T16:45:33.398Z,4.10
2017-12-01T16:48:01.204Z,4.20
2017-12-01T16:50:28.224Z,4.10
2017-12-01T16:52:56.007Z,4.30
2017-12-01T16:55:23.039Z,4.30
2017-12-01T16:57:50.083Z,4.40
2017-12-01T17:00:17.873Z,4.50
2017-12-01T17:02:44.895Z,4.50
2017-12-01T17:05:12.681Z,4.50
2017-12-01T17:07:39.699Z,4.50
2017-12-01T17:10:07.488Z,4.40
2017-12-01T17:12:34.511Z,4.40
2017-12-01T17:15:02.300Z,4.40
2017-12-01T17:17:29.317Z,4.30
2017-12-01T17:19:56.335Z,4.50
2017-12-01T17:22:23.371Z,4.60
2017-12-01T17:24:50.388Z,4.60
2017-12-01T17:27:18.173Z,4.60
2017-12-01T17:29:45.204Z,4.60
2017-12-01T17:32:12.224Z,4.60
2017-12-01T17:34:39.252Z,4.50
2017-12-01T17:37:06.281Z,4.50
2017-12-01T17:39:33.311Z,4.60
2017-12-01T17:42:00.328Z,4.50
2017-12-01T17:44:28.113Z,4.30
2017-12-01T17:46:55.135Z,4.30
2017-12-01T17:49:22.155Z,4.30
2017-12-01T17:51:49.191Z,4.40
2017-12-01T17:54:17.856Z,4.50
2017-12-01T17:56:44.875Z,4.40
2017-12-01T17:59:12.658Z,4.50
2017-12-01T18:01:39.680Z,4.50
2017-12-01T18:04:07.494Z,4.50
2017-12-01T18:06:34.544Z,4.50
2017-12-01T18:09:01.552Z,4.60
2017-12-01T18:11:29.343Z,4.80
2017-12-01T18:13:56.392Z,4.80
2017-12-01T18:16:23.414Z,4.80
2017-12-01T18:18:51.206Z,4.90
2017-12-01T18:21:18.239Z,4.90
2017-12-01T18:23:45.262Z,4.90
2017-12-01T18:26:12.288Z,4.90
2017-12-01T18:28:39.375Z,5.00
2017-12-01T18:31:07.172Z,5.00
2017-12-01T18:33:34.219Z,4.90
2017-12-01T18:36:01.252Z,5.00
2017-12-01T18:38:28.381Z,5.00
2017-12-01T18:40:56.180Z,5.00
2017-12-01T18:43:23.268Z,5.00
2017-12-01T18:45:51.092Z,5.00
2017-12-01T18:48:18.142Z,5.00
2017-12-01T18:50:45.167Z,5.00
2017-12-01T18:53:12.961Z,4.90
2017-12-01T18:55:40.009Z,4.80
2017-12-01T18:58:07.088Z,5.00
2017-12-01T19:00:34.310Z,4.90
2017-12-01T19:03:01.346Z,5.00
2017-12-01T19:05:28.462Z,5.00
2017-12-01T19:07:55.591Z,5.00
2017-12-01T19:10:22.612Z,5.00
2017-12-01T19:12:49.652Z,4.80
2017-12-01T19:15:16.676Z,4.80
2017-12-01T19:17:44.483Z,5.00
2017-12-01T19:20:11.529Z,4.90
2017-12-01T19:22:38.724Z,4.90
2017-12-01T19:25:05.863Z,5.00
2017-12-01T19:27:32.896Z,5.00
2017-12-01T19:29:59.933Z,5.20
2017-12-01T19:32:26.955Z,5.30
2017-12-01T19:34:53.993Z,5.20
2017-12-01T19:37:21.784Z,5.20
2017-12-01T19:39:48.811Z,5.10
2017-12-01T19:42:16.647Z,5.20
2017-12-01T19:44:43.686Z,5.10
2017-12-01T19:47:12.228Z,5.00
2017-12-01T19:49:39.260Z,5.00
2017-12-01T19:52:06.429Z,5.10
2017-12-01T19:54:33.612Z,5.00
2017-12-01T19:57:00.686Z,5.00
2017-12-01T19:59:27.712Z,4.90
2017-12-01T20:01:54.747Z,5.00
2017-12-01T20:04:21.768Z,5.00
2017-12-01T20:06:48.826Z,5.00
2017-12-01T20:09:15.888Z,5.10
2017-12-01T20:11:43.032Z,5.00
2017-12-01T20:14:10.132Z,5.10
2017-12-01T20:16:37.163Z,5.00
2017-12-01T20:19:04.191Z,5.00
2017-12-01T20:21:31.221Z,5.10
2017-12-01T20:23:58.340Z,5.20
2017-12-01T20:26:26.204Z,5.20
2017-12-01T20:28:53.242Z,5.20
2017-12-01T20:31:20.320Z,5.20
2017-12-01T20:33:47.338Z,5.10
2017-12-01T20:36:14.458Z,5.20
2017-12-01T20:38:41.479Z,5.20
2017-12-01T20:41:08.674Z,5.10
2017-12-01T20:43:35.690Z,5.20
2017-12-01T20:46:02.723Z,5.20
2017-12-01T20:48:29.752Z,5.10
2017-12-01T20:50:57.629Z,5.20
2017-12-01T20:53:24.669Z,5.10
2017-12-01T20:55:51.791Z,5.20
2017-12-01T20:58:19.633Z,5.20
2017-12-01T21:00:46.672Z,5.20
2017-12-01T21:03:13.716Z,5.10
2017-12-01T21:05:40.857Z,5.00
2017-12-01T21:08:07.887Z,5.00
2017-12-01T21:10:35.734Z,4.90
2017-12-01T21:13:02.775Z,4.90
2017-12-01T21:15:29.792Z,5.00
2017-12-01T21:17:56.816Z,5.10
2017-12-01T21:20:23.839Z,5.10
2017-12-01T21:22:51.636Z,5.20
2017-12-01T21:25:18.656Z,5.20
2017-12-01T21:27:46.437Z,5.10
2017-12-01T21:30:13.468Z,5.10
2017-12-01T21:32:41.296Z,5.00
2017-12-01T21:35:08.327Z,4.90
2017-12-01T21:37:35.348Z,4.90
2017-12-01T21:40:02.403Z,5.10
2017-12-01T21:42:29.425Z,5.20
2017-12-01T21:44:57.228Z,5.30
2017-12-01T21:47:24.254Z,5.30
2017-12-01T21:49:51.331Z,5.30
2017-12-01T21:52:18.357Z,5.20
2017-12-01T21:54:45.376Z,5.10
2017-12-01T21:57:13.172Z,5.20
2017-12-01T21:59:40.209Z,5.10
2017-12-01T22:02:07.249Z,5.20
2017-12-01T22:04:35.034Z,5.20
2017-12-01T22:07:02.069Z,5.10
2017-12-01T22:09:29.861Z,5.20
2017-12-01T22:11:57.077Z,5.10
2017-12-01T22:14:24.171Z,5.20
2017-12-01T22:16:51.275Z,5.30
2017-12-01T22:19:19.137Z,5.50
2017-12-01T22:21:46.184Z,5.50
2017-12-01T22:24:13.997Z,5.60
2017-12-01T22:26:41.033Z,5.50
2017-12-01T22:29:08.183Z,5.60
2017-12-01T22:31:35.309Z,5.50
2017-12-01T22:34:03.237Z,5.60
2017-12-01T22:36:30.264Z,5.50
2017-12-01T22:38:57.291Z,5.60
2017-12-01T22:41:24.316Z,5.60
2017-12-01T22:43:52.172Z,5.50
2017-12-01T22:46:19.269Z,5.50
2017-12-01T22:48:46.294Z,5.40
2017-12-01T22:51:14.082Z,5.40
2017-12-01T22:53:41.097Z,5.30
2017-12-01T22:56:08.884Z,5.40
2017-12-01T22:58:35.918Z,5.40
2017-12-01T23:01:03.737Z,5.50
2017-12-01T23:03:31.544Z,5.50
2017-12-01T23:05:58.563Z,5.40
2017-12-01T23:08:25.588Z,5.60
2017-12-01T23:10:52.603Z,5.50
2017-12-01T23:13:20.399Z,5.50
2017-12-01T23:15:47.416Z,5.50
2017-12-01T23:18:15.312Z,5.60
2017-12-01T23:20:42.360Z,5.60
2017-12-01T23:23:09.387Z,5.60
2017-12-01T23:25:36.415Z,5.60
2017-12-01T23:28:04.215Z,5.30
2017-12-01T23:30:31.244Z,5.30
2017-12-01T23:32:59.068Z,5.30
2017-12-01T23:35:26.083Z,5.30
2017-12-01T23:37:53.122Z,5.40
2017-12-01T23:40:20.139Z,5.50
2017-12-01T23:42:47.926Z,5.40
2017-12-01T23:45:14.967Z,5.40
2017-12-01T23:47:42.755Z,5.60
2017-12-01T23:50:09.789Z,5.50
2017-12-01T23:52:36.825Z,5.70
2017-12-01T23:55:04.622Z,5.80
2017-12-01T23:57:31.649Z,5.80
2017-12-01T23:59:58.679Z,5.70
